sensor_id;sensor_type;location;lat;lon;timestamp;temperature;humidity
24103;DHT22;12278;53.058;9.028;2023-05-01T00:03:35;7.50;99.90
24103;DHT22;12278;53.058;9.028;2023-05-01T00:07:35;7.50;99.90
24103;DHT22;12278;53.058;9.028;2023-05-01T00:11:36;7.40;99.90
24103;DHT22;12278;53.058;9.028;2023-05-01T00:15:40;7.30;99.90
24103;DHT22;12278;53.058;9.028;2023-05-01T00:19:41;7.30;99.90
24103;DHT22;12278;53.058;9.028;2023-05-01T00:23:42;7.10;99.90
24103;DHT22;12278;53.058;9.028;2023-05-01T00:27:42;7.10;99.90
24103;DHT22;12278;53.058;9.028;2023-05-01T00:31:43;7.00;99.90
24103;DHT22;12278;53.058;9.028;2023-05-01T00:35:45;7.00;99.90
24103;DHT22;12278;53.058;9.028;2023-05-01T00:39:45;7.00;99.90
24103;DHT22;12278;53.058;9.028;2023-05-01T00:43:46;6.90;99.90
24103;DHT22;12278;53.058;9.028;2023-05-01T00:47:47;6.90;99.90
24103;DHT22;12278;53.058;9.028;2023-05-01T00:51:50;6.90;99.90
24103;DHT22;12278;53.058;9.028;2023-05-01T00:55:54;6.90;99.90
24103;DHT22;12278;53.058;9.028;2023-05-01T00:59:56;6.80;99.90
24103;DHT22;12278;53.058;9.028;2023-05-01T01:03:56;6.80;99.90
24103;DHT22;12278;53.058;9.028;2023-05-01T01:08:25;6.70;99.90
24103;DHT22;12278;53.058;9.028;2023-05-01T01:12:33;6.70;99.90
24103;DHT22;12278;53.058;9.028;2023-05-01T01:16:58;6.70;99.90
24103;DHT22;12278;53.058;9.028;2023-05-01T01:34:24;6.50;99.90
24103;DHT22;12278;53.058;9.028;2023-05-01T01:38:39;6.50;99.90
24103;DHT22;12278;53.058;9.028;2023-05-01T01:42:50;6.50;99.90
24103;DHT22;12278;53.058;9.028;2023-05-01T01:46:53;6.50;99.90
24103;DHT22;12278;53.058;9.028;2023-05-01T01:50:57;6.60;99.90
24103;DHT22;12278;53.058;9.028;2023-05-01T01:55:03;6.60;99.90
24103;DHT22;12278;53.058;9.028;2023-05-01T01:59:06;6.70;99.90
24103;DHT22;12278;53.058;9.028;2023-05-01T02:03:08;6.70;99.90
24103;DHT22;12278;53.058;9.028;2023-05-01T02:07:11;6.80;99.90
24103;DHT22;12278;53.058;9.028;2023-05-01T02:11:14;6.90;99.90
24103;DHT22;12278;53.058;9.028;2023-05-01T02:15:20;6.90;99.90
24103;DHT22;12278;53.058;9.028;2023-05-01T02:19:22;7.00;99.90
24103;DHT22;12278;53.058;9.028;2023-05-01T02:23:24;7.10;99.90
24103;DHT22;12278;53.058;9.028;2023-05-01T02:27:31;7.30;99.90
24103;DHT22;12278;53.058;9.028;2023-05-01T02:31:33;7.30;99.90
24103;DHT22;12278;53.058;9.028;2023-05-01T02:35:42;7.30;99.90
24103;DHT22;12278;53.058;9.028;2023-05-01T02:39:43;7.20;99.90
24103;DHT22;12278;53.058;9.028;2023-05-01T02:43:45;7.30;99.90
24103;DHT22;12278;53.058;9.028;2023-05-01T02:47:50;7.40;99.90
24103;DHT22;12278;53.058;9.028;2023-05-01T02:51:52;7.40;99.90
24103;DHT22;12278;53.058;9.028;2023-05-01T02:55:53;7.50;99.90
24103;DHT22;12278;53.058;9.028;2023-05-01T02:59:54;7.50;99.90
24103;DHT22;12278;53.058;9.028;2023-05-01T03:03:55;7.50;99.90
24103;DHT22;12278;53.058;9.028;2023-05-01T03:07:56;7.40;99.90
24103;DHT22;12278;53.058;9.028;2023-05-01T03:11:57;7.20;99.90
24103;DHT22;12278;53.058;9.028;2023-05-01T03:15:57;7.20;99.90
24103;DHT22;12278;53.058;9.028;2023-05-01T03:19:58;7.10;99.90
24103;DHT22;12278;53.058;9.028;2023-05-01T03:23:59;7.00;99.90
24103;DHT22;12278;53.058;9.028;2023-05-01T03:28:00;6.90;99.90
24103;DHT22;12278;53.058;9.028;2023-05-01T03:32:00;6.90;99.90
24103;DHT22;12278;53.058;9.028;2023-05-01T03:36:05;6.80;99.90
24103;DHT22;12278;53.058;9.028;2023-05-01T03:40:06;6.80;99.90
24103;DHT22;12278;53.058;9.028;2023-05-01T03:44:07;6.70;99.90
24103;DHT22;12278;53.058;9.028;2023-05-01T03:48:08;6.60;99.90
24103;DHT22;12278;53.058;9.028;2023-05-01T03:52:09;6.60;99.90
24103;DHT22;12278;53.058;9.028;2023-05-01T03:56:11;6.60;99.90
24103;DHT22;12278;53.058;9.028;2023-05-01T04:00:12;6.60;99.90
24103;DHT22;12278;53.058;9.028;2023-05-01T04:04:14;6.60;99.90
24103;DHT22;12278;53.058;9.028;2023-05-01T04:08:14;6.60;99.90
24103;DHT22;12278;53.058;9.028;2023-05-01T04:12:15;6.60;99.90
24103;DHT22;12278;53.058;9.028;2023-05-01T04:16:16;6.50;99.90
24103;DHT22;12278;53.058;9.028;2023-05-01T04:20:20;6.50;99.90
24103;DHT22;12278;53.058;9.028;2023-05-01T04:24:21;6.50;99.90
24103;DHT22;12278;53.058;9.028;2023-05-01T04:28:21;6.50;99.90
24103;DHT22;12278;53.058;9.028;2023-05-01T04:32:22;6.50;99.90
24103;DHT22;12278;53.058;9.028;2023-05-01T04:36:23;6.60;99.90
24103;DHT22;12278;53.058;9.028;2023-05-01T04:40:24;6.60;99.90
24103;DHT22;12278;53.058;9.028;2023-05-01T04:44:24;6.70;99.90
24103;DHT22;12278;53.058;9.028;2023-05-01T04:48:25;6.90;99.90
24103;DHT22;12278;53.058;9.028;2023-05-01T04:52:26;6.90;99.90
24103;DHT22;12278;53.058;9.028;2023-05-01T04:56:26;7.10;99.90
24103;DHT22;12278;53.058;9.028;2023-05-01T05:00:27;7.20;99.90
24103;DHT22;12278;53.058;9.028;2023-05-01T05:04:27;7.30;99.90
24103;DHT22;12278;53.058;9.028;2023-05-01T05:08:28;7.40;99.90
24103;DHT22;12278;53.058;9.028;2023-05-01T05:12:29;7.40;99.90
24103;DHT22;12278;53.058;9.028;2023-05-01T05:16:30;7.40;99.90
24103;DHT22;12278;53.058;9.028;2023-05-01T05:20:30;7.50;99.90
24103;DHT22;12278;53.058;9.028;2023-05-01T05:24:31;7.60;99.90
24103;DHT22;12278;53.058;9.028;2023-05-01T05:28:31;7.90;99.90
24103;DHT22;12278;53.058;9.028;2023-05-01T05:32:32;8.10;99.90
24103;DHT22;12278;53.058;9.028;2023-05-01T05:36:33;8.30;99.90
24103;DHT22;12278;53.058;9.028;2023-05-01T05:40:34;8.40;99.90
24103;DHT22;12278;53.058;9.028;2023-05-01T05:44:35;8.60;99.90
24103;DHT22;12278;53.058;9.028;2023-05-01T05:48:36;8.70;99.90
24103;DHT22;12278;53.058;9.028;2023-05-01T05:52:37;8.80;99.90
24103;DHT22;12278;53.058;9.028;2023-05-01T05:56:37;8.90;99.90
24103;DHT22;12278;53.058;9.028;2023-05-01T06:00:38;9.00;99.90
24103;DHT22;12278;53.058;9.028;2023-05-01T06:04:39;9.30;99.90
24103;DHT22;12278;53.058;9.028;2023-05-01T06:08:39;9.40;99.90
24103;DHT22;12278;53.058;9.028;2023-05-01T06:12:40;9.80;99.90
24103;DHT22;12278;53.058;9.028;2023-05-01T06:16:41;10.10;99.90
24103;DHT22;12278;53.058;9.028;2023-05-01T06:20:41;10.20;99.90
24103;DHT22;12278;53.058;9.028;2023-05-01T06:24:42;10.20;99.90
24103;DHT22;12278;53.058;9.028;2023-05-01T06:28:43;10.40;99.90
24103;DHT22;12278;53.058;9.028;2023-05-01T06:32:44;10.60;99.90
24103;DHT22;12278;53.058;9.028;2023-05-01T06:36:45;10.90;99.90
24103;DHT22;12278;53.058;9.028;2023-05-01T06:40:47;11.10;99.90
24103;DHT22;12278;53.058;9.028;2023-05-01T06:44:48;11.30;99.90
24103;DHT22;12278;53.058;9.028;2023-05-01T06:48:49;11.70;99.90
24103;DHT22;12278;53.058;9.028;2023-05-01T06:52:49;11.90;99.90
24103;DHT22;12278;53.058;9.028;2023-05-01T06:56:50;11.90;99.90
24103;DHT22;12278;53.058;9.028;2023-05-01T07:00:52;12.20;99.90
24103;DHT22;12278;53.058;9.028;2023-05-01T07:04:53;12.30;99.90
24103;DHT22;12278;53.058;9.028;2023-05-01T07:08:53;12.60;99.90
24103;DHT22;12278;53.058;9.028;2023-05-01T07:12:54;13.30;99.90
24103;DHT22;12278;53.058;9.028;2023-05-01T07:16:54;13.70;99.90
24103;DHT22;12278;53.058;9.028;2023-05-01T07:20:55;13.80;99.90
24103;DHT22;12278;53.058;9.028;2023-05-01T07:24:56;14.10;99.20
24103;DHT22;12278;53.058;9.028;2023-05-01T07:28:56;14.10;98.10
24103;DHT22;12278;53.058;9.028;2023-05-01T07:32:57;14.10;98.40
24103;DHT22;12278;53.058;9.028;2023-05-01T07:36:58;14.30;97.60
24103;DHT22;12278;53.058;9.028;2023-05-01T07:40:59;14.80;98.30
24103;DHT22;12278;53.058;9.028;2023-05-01T07:44:59;14.80;96.30
24103;DHT22;12278;53.058;9.028;2023-05-01T07:49:00;15.10;97.10
24103;DHT22;12278;53.058;9.028;2023-05-01T07:53:01;15.00;96.90
24103;DHT22;12278;53.058;9.028;2023-05-01T07:57:02;15.20;96.70
24103;DHT22;12278;53.058;9.028;2023-05-01T08:01:05;15.20;96.70
24103;DHT22;12278;53.058;9.028;2023-05-01T08:05:06;15.40;96.00
24103;DHT22;12278;53.058;9.028;2023-05-01T08:09:07;15.60;96.10
24103;DHT22;12278;53.058;9.028;2023-05-01T08:13:07;15.60;96.10
24103;DHT22;12278;53.058;9.028;2023-05-01T08:17:08;15.70;96.10
24103;DHT22;12278;53.058;9.028;2023-05-01T08:21:09;15.80;96.10
24103;DHT22;12278;53.058;9.028;2023-05-01T08:25:10;15.90;96.50
24103;DHT22;12278;53.058;9.028;2023-05-01T08:29:11;16.20;97.20
24103;DHT22;12278;53.058;9.028;2023-05-01T08:33:11;16.60;96.60
24103;DHT22;12278;53.058;9.028;2023-05-01T08:37:12;16.60;95.10
24103;DHT22;12278;53.058;9.028;2023-05-01T08:41:20;16.60;96.60
24103;DHT22;12278;53.058;9.028;2023-05-01T08:45:22;16.40;94.80
24103;DHT22;12278;53.058;9.028;2023-05-01T08:49:23;16.80;95.60
24103;DHT22;12278;53.058;9.028;2023-05-01T08:53:26;16.70;96.20
24103;DHT22;12278;53.058;9.028;2023-05-01T08:57:29;16.50;95.90
24103;DHT22;12278;53.058;9.028;2023-05-01T09:01:32;16.50;96.10
24103;DHT22;12278;53.058;9.028;2023-05-01T09:05:33;16.50;95.90
24103;DHT22;12278;53.058;9.028;2023-05-01T09:09:34;16.60;96.70
24103;DHT22;12278;53.058;9.028;2023-05-01T09:13:35;17.20;95.20
24103;DHT22;12278;53.058;9.028;2023-05-01T09:17:35;16.70;95.40
24103;DHT22;12278;53.058;9.028;2023-05-01T09:21:36;16.70;94.80
24103;DHT22;12278;53.058;9.028;2023-05-01T09:25:37;16.90;96.40
24103;DHT22;12278;53.058;9.028;2023-05-01T09:29:41;16.90;95.30
24103;DHT22;12278;53.058;9.028;2023-05-01T09:33:52;16.90;95.30
24103;DHT22;12278;53.058;9.028;2023-05-01T09:37:53;17.20;95.20
24103;DHT22;12278;53.058;9.028;2023-05-01T09:41:56;17.40;96.30
24103;DHT22;12278;53.058;9.028;2023-05-01T09:46:24;17.50;95.40
24103;DHT22;12278;53.058;9.028;2023-05-01T09:54:30;17.60;94.90
24103;DHT22;12278;53.058;9.028;2023-05-01T09:58:30;17.70;94.50
24103;DHT22;12278;53.058;9.028;2023-05-01T10:02:31;17.10;94.50
24103;DHT22;12278;53.058;9.028;2023-05-01T10:06:32;17.50;94.80
24103;DHT22;12278;53.058;9.028;2023-05-01T10:10:32;17.70;95.00
24103;DHT22;12278;53.058;9.028;2023-05-01T10:14:48;17.80;93.70
24103;DHT22;12278;53.058;9.028;2023-05-01T10:18:48;18.30;95.90
24103;DHT22;12278;53.058;9.028;2023-05-01T10:22:50;18.60;94.20
24103;DHT22;12278;53.058;9.028;2023-05-01T10:26:51;19.10;95.30
24103;DHT22;12278;53.058;9.028;2023-05-01T10:30:54;18.90;94.90
24103;DHT22;12278;53.058;9.028;2023-05-01T10:35:00;18.50;94.20
24103;DHT22;12278;53.058;9.028;2023-05-01T10:39:02;18.50;93.00
24103;DHT22;12278;53.058;9.028;2023-05-01T10:51:27;18.90;94.20
24103;DHT22;12278;53.058;9.028;2023-05-01T10:55:35;19.10;94.50
24103;DHT22;12278;53.058;9.028;2023-05-01T11:04:03;19.00;93.40
24103;DHT22;12278;53.058;9.028;2023-05-01T11:08:31;19.10;93.20
24103;DHT22;12278;53.058;9.028;2023-05-01T11:16:45;19.80;90.50
24103;DHT22;12278;53.058;9.028;2023-05-01T11:20:48;20.00;92.10
24103;DHT22;12278;53.058;9.028;2023-05-01T11:24:48;20.00;87.40
24103;DHT22;12278;53.058;9.028;2023-05-01T11:28:49;19.70;91.30
24103;DHT22;12278;53.058;9.028;2023-05-01T11:32:53;20.00;91.00
24103;DHT22;12278;53.058;9.028;2023-05-01T11:36:54;20.10;84.40
24103;DHT22;12278;53.058;9.028;2023-05-01T11:40:57;20.50;88.60
24103;DHT22;12278;53.058;9.028;2023-05-01T11:45:06;20.70;84.80
24103;DHT22;12278;53.058;9.028;2023-05-01T11:49:07;21.20;90.50
24103;DHT22;12278;53.058;9.028;2023-05-01T11:53:13;20.90;84.80
24103;DHT22;12278;53.058;9.028;2023-05-01T11:57:14;21.20;78.50
24103;DHT22;12278;53.058;9.028;2023-05-01T12:01:15;19.80;77.30
24103;DHT22;12278;53.058;9.028;2023-05-01T12:05:17;20.40;84.10
24103;DHT22;12278;53.058;9.028;2023-05-01T12:09:19;21.00;86.90
24103;DHT22;12278;53.058;9.028;2023-05-01T12:13:20;21.40;81.20
24103;DHT22;12278;53.058;9.028;2023-05-01T12:17:21;21.70;85.20
24103;DHT22;12278;53.058;9.028;2023-05-01T12:21:22;22.10;84.50
24103;DHT22;12278;53.058;9.028;2023-05-01T12:25:34;22.30;85.90
24103;DHT22;12278;53.058;9.028;2023-05-01T12:29:41;22.70;81.90
24103;DHT22;12278;53.058;9.028;2023-05-01T12:33:58;22.50;80.10
24103;DHT22;12278;53.058;9.028;2023-05-01T12:38:00;22.40;80.20
24103;DHT22;12278;53.058;9.028;2023-05-01T12:42:12;22.50;80.30
24103;DHT22;12278;53.058;9.028;2023-05-01T12:46:14;22.60;76.40
24103;DHT22;12278;53.058;9.028;2023-05-01T12:50:16;22.80;76.70
24103;DHT22;12278;53.058;9.028;2023-05-01T12:54:27;22.90;77.40
24103;DHT22;12278;53.058;9.028;2023-05-01T12:58:35;22.20;77.80
24103;DHT22;12278;53.058;9.028;2023-05-01T13:02:37;21.80;78.00
24103;DHT22;12278;53.058;9.028;2023-05-01T13:06:38;22.30;78.60
24103;DHT22;12278;53.058;9.028;2023-05-01T13:10:38;22.20;82.70
24103;DHT22;12278;53.058;9.028;2023-05-01T13:14:40;22.70;78.10
24103;DHT22;12278;53.058;9.028;2023-05-01T13:18:46;22.90;77.00
24103;DHT22;12278;53.058;9.028;2023-05-01T13:22:47;22.50;79.40
24103;DHT22;12278;53.058;9.028;2023-05-01T13:26:55;24.00;79.60
24103;DHT22;12278;53.058;9.028;2023-05-01T13:30:58;23.40;75.30
24103;DHT22;12278;53.058;9.028;2023-05-01T13:35:00;24.90;72.40
24103;DHT22;12278;53.058;9.028;2023-05-01T13:39:01;25.00;72.30
24103;DHT22;12278;53.058;9.028;2023-05-01T13:43:01;25.40;71.30
24103;DHT22;12278;53.058;9.028;2023-05-01T13:47:02;24.50;72.10
24103;DHT22;12278;53.058;9.028;2023-05-01T13:51:03;24.90;73.00
24103;DHT22;12278;53.058;9.028;2023-05-01T13:55:06;23.50;75.20
24103;DHT22;12278;53.058;9.028;2023-05-01T13:59:07;21.60;78.10
24103;DHT22;12278;53.058;9.028;2023-05-01T14:03:09;22.20;79.70
24103;DHT22;12278;53.058;9.028;2023-05-01T14:07:16;21.30;78.90
24103;DHT22;12278;53.058;9.028;2023-05-01T14:11:18;20.40;81.10
24103;DHT22;12278;53.058;9.028;2023-05-01T14:15:22;20.00;85.10
24103;DHT22;12278;53.058;9.028;2023-05-01T14:19:26;20.60;85.40
24103;DHT22;12278;53.058;9.028;2023-05-01T14:23:28;20.90;84.90
24103;DHT22;12278;53.058;9.028;2023-05-01T14:27:28;21.50;85.60
24103;DHT22;12278;53.058;9.028;2023-05-01T14:31:29;21.50;82.10
24103;DHT22;12278;53.058;9.028;2023-05-01T14:35:30;22.10;81.20
24103;DHT22;12278;53.058;9.028;2023-05-01T14:39:31;22.20;79.70
24103;DHT22;12278;53.058;9.028;2023-05-01T14:43:32;23.30;80.80
24103;DHT22;12278;53.058;9.028;2023-05-01T14:47:34;23.00;80.50
24103;DHT22;12278;53.058;9.028;2023-05-01T14:51:35;22.20;82.20
24103;DHT22;12278;53.058;9.028;2023-05-01T14:55:37;23.00;80.50
24103;DHT22;12278;53.058;9.028;2023-05-01T14:59:39;22.90;80.30
24103;DHT22;12278;53.058;9.028;2023-05-01T15:03:40;21.80;84.50
24103;DHT22;12278;53.058;9.028;2023-05-01T15:07:41;20.90;83.30
24103;DHT22;12278;53.058;9.028;2023-05-01T15:11:42;20.20;85.20
24103;DHT22;12278;53.058;9.028;2023-05-01T15:15:43;19.80;89.20
24103;DHT22;12278;53.058;9.028;2023-05-01T15:19:43;19.60;90.40
24103;DHT22;12278;53.058;9.028;2023-05-01T15:23:44;19.40;91.10
24103;DHT22;12278;53.058;9.028;2023-05-01T15:27:50;19.30;93.50
24103;DHT22;12278;53.058;9.028;2023-05-01T15:31:51;19.30;93.20
24103;DHT22;12278;53.058;9.028;2023-05-01T15:35:52;19.20;94.10
24103;DHT22;12278;53.058;9.028;2023-05-01T15:39:53;19.90;95.40
24103;DHT22;12278;53.058;9.028;2023-05-01T15:43:56;20.60;93.40
24103;DHT22;12278;53.058;9.028;2023-05-01T15:48:00;20.80;93.10
24103;DHT22;12278;53.058;9.028;2023-05-01T15:52:01;20.40;92.00
24103;DHT22;12278;53.058;9.028;2023-05-01T15:56:02;20.20;93.50
24103;DHT22;12278;53.058;9.028;2023-05-01T16:00:03;20.40;92.50
24103;DHT22;12278;53.058;9.028;2023-05-01T16:04:04;20.40;93.60
24103;DHT22;12278;53.058;9.028;2023-05-01T16:08:05;20.70;92.50
24103;DHT22;12278;53.058;9.028;2023-05-01T16:12:06;20.50;93.90
24103;DHT22;12278;53.058;9.028;2023-05-01T16:16:11;20.10;92.40
24103;DHT22;12278;53.058;9.028;2023-05-01T16:20:13;19.80;93.70
24103;DHT22;12278;53.058;9.028;2023-05-01T16:24:16;19.70;94.10
24103;DHT22;12278;53.058;9.028;2023-05-01T16:28:18;19.80;93.50
24103;DHT22;12278;53.058;9.028;2023-05-01T16:32:19;19.60;94.20
24103;DHT22;12278;53.058;9.028;2023-05-01T16:36:20;19.60;93.30
24103;DHT22;12278;53.058;9.028;2023-05-01T16:40:21;19.60;93.50
24103;DHT22;12278;53.058;9.028;2023-05-01T16:44:22;21.40;92.70
24103;DHT22;12278;53.058;9.028;2023-05-01T16:48:24;22.70;90.50
24103;DHT22;12278;53.058;9.028;2023-05-01T16:52:25;22.30;91.50
24103;DHT22;12278;53.058;9.028;2023-05-01T16:56:26;22.00;92.90
24103;DHT22;12278;53.058;9.028;2023-05-01T17:00:27;21.80;92.50
24103;DHT22;12278;53.058;9.028;2023-05-01T17:04:28;21.60;92.50
24103;DHT22;12278;53.058;9.028;2023-05-01T17:08:29;20.80;92.80
24103;DHT22;12278;53.058;9.028;2023-05-01T17:12:30;20.00;93.10
24103;DHT22;12278;53.058;9.028;2023-05-01T17:16:31;18.90;94.60
24103;DHT22;12278;53.058;9.028;2023-05-01T17:20:32;18.20;95.40
24103;DHT22;12278;53.058;9.028;2023-05-01T17:24:34;17.80;96.20
24103;DHT22;12278;53.058;9.028;2023-05-01T17:28:37;17.40;96.30
24103;DHT22;12278;53.058;9.028;2023-05-01T17:32:38;17.30;97.20
24103;DHT22;12278;53.058;9.028;2023-05-01T17:36:39;17.10;97.20
24103;DHT22;12278;53.058;9.028;2023-05-01T17:40:40;17.10;97.70
24103;DHT22;12278;53.058;9.028;2023-05-01T17:44:41;17.00;97.00
24103;DHT22;12278;53.058;9.028;2023-05-01T17:48:42;16.80;97.80
24103;DHT22;12278;53.058;9.028;2023-05-01T17:52:43;16.50;98.50
24103;DHT22;12278;53.058;9.028;2023-05-01T17:56:46;16.40;98.00
24103;DHT22;12278;53.058;9.028;2023-05-01T18:00:47;16.20;98.60
24103;DHT22;12278;53.058;9.028;2023-05-01T18:04:47;16.10;98.30
24103;DHT22;12278;53.058;9.028;2023-05-01T18:08:49;15.90;99.10
24103;DHT22;12278;53.058;9.028;2023-05-01T18:12:50;15.70;98.70
24103;DHT22;12278;53.058;9.028;2023-05-01T18:16:51;15.50;98.30
24103;DHT22;12278;53.058;9.028;2023-05-01T18:20:55;15.20;99.20
24103;DHT22;12278;53.058;9.028;2023-05-01T18:24:56;15.10;99.10
24103;DHT22;12278;53.058;9.028;2023-05-01T18:28:57;15.00;99.70
24103;DHT22;12278;53.058;9.028;2023-05-01T18:32:58;14.90;99.90
24103;DHT22;12278;53.058;9.028;2023-05-01T18:36:58;14.80;99.90
24103;DHT22;12278;53.058;9.028;2023-05-01T18:40:59;14.70;99.90
24103;DHT22;12278;53.058;9.028;2023-05-01T18:45:00;14.50;99.90
24103;DHT22;12278;53.058;9.028;2023-05-01T18:49:01;14.30;99.90
24103;DHT22;12278;53.058;9.028;2023-05-01T18:53:02;14.20;99.90
24103;DHT22;12278;53.058;9.028;2023-05-01T18:57:03;14.20;99.90
24103;DHT22;12278;53.058;9.028;2023-05-01T19:01:05;14.10;99.90
24103;DHT22;12278;53.058;9.028;2023-05-01T19:05:06;14.00;99.90
24103;DHT22;12278;53.058;9.028;2023-05-01T19:09:10;14.00;99.90
24103;DHT22;12278;53.058;9.028;2023-05-01T19:13:11;13.90;99.90
24103;DHT22;12278;53.058;9.028;2023-05-01T19:17:12;13.80;99.90
24103;DHT22;12278;53.058;9.028;2023-05-01T19:21:12;13.70;99.90
24103;DHT22;12278;53.058;9.028;2023-05-01T19:25:17;13.70;99.90
24103;DHT22;12278;53.058;9.028;2023-05-01T19:29:18;13.60;99.90
24103;DHT22;12278;53.058;9.028;2023-05-01T19:33:19;13.50;99.90
24103;DHT22;12278;53.058;9.028;2023-05-01T19:37:19;13.40;99.90
24103;DHT22;12278;53.058;9.028;2023-05-01T19:41:20;13.30;99.90
24103;DHT22;12278;53.058;9.028;2023-05-01T19:45:21;13.30;99.90
24103;DHT22;12278;53.058;9.028;2023-05-01T19:49:22;13.30;99.90
24103;DHT22;12278;53.058;9.028;2023-05-01T19:53:24;13.30;99.90
24103;DHT22;12278;53.058;9.028;2023-05-01T19:57:27;13.40;99.90
24103;DHT22;12278;53.058;9.028;2023-05-01T20:01:28;13.40;99.90
24103;DHT22;12278;53.058;9.028;2023-05-01T20:05:30;13.30;99.90
24103;DHT22;12278;53.058;9.028;2023-05-01T20:09:32;13.30;99.90
24103;DHT22;12278;53.058;9.028;2023-05-01T20:13:32;13.20;99.90
24103;DHT22;12278;53.058;9.028;2023-05-01T20:17:33;13.20;99.90
24103;DHT22;12278;53.058;9.028;2023-05-01T20:21:34;13.10;99.90
24103;DHT22;12278;53.058;9.028;2023-05-01T20:25:36;12.90;99.90
24103;DHT22;12278;53.058;9.028;2023-05-01T20:29:37;12.90;99.90
24103;DHT22;12278;53.058;9.028;2023-05-01T20:33:38;12.80;99.90
24103;DHT22;12278;53.058;9.028;2023-05-01T20:37:39;12.80;99.90
24103;DHT22;12278;53.058;9.028;2023-05-01T20:41:40;12.70;99.90
24103;DHT22;12278;53.058;9.028;2023-05-01T20:45:41;12.60;99.90
24103;DHT22;12278;53.058;9.028;2023-05-01T20:49:42;12.70;99.90
24103;DHT22;12278;53.058;9.028;2023-05-01T20:53:43;12.60;99.90
24103;DHT22;12278;53.058;9.028;2023-05-01T20:57:43;12.60;99.90
24103;DHT22;12278;53.058;9.028;2023-05-01T21:01:44;12.60;99.90
24103;DHT22;12278;53.058;9.028;2023-05-01T21:05:45;12.70;99.90
24103;DHT22;12278;53.058;9.028;2023-05-01T21:09:46;12.60;99.90
24103;DHT22;12278;53.058;9.028;2023-05-01T21:13:47;12.70;99.90
24103;DHT22;12278;53.058;9.028;2023-05-01T21:17:48;12.80;99.90
24103;DHT22;12278;53.058;9.028;2023-05-01T21:21:49;12.80;99.90
24103;DHT22;12278;53.058;9.028;2023-05-01T21:25:55;12.70;99.90
24103;DHT22;12278;53.058;9.028;2023-05-01T21:29:57;12.80;99.90
24103;DHT22;12278;53.058;9.028;2023-05-01T21:33:59;12.80;99.90
24103;DHT22;12278;53.058;9.028;2023-05-01T21:38:05;12.70;99.90
24103;DHT22;12278;53.058;9.028;2023-05-01T21:42:07;12.70;99.90
24103;DHT22;12278;53.058;9.028;2023-05-01T21:46:14;12.70;99.90
24103;DHT22;12278;53.058;9.028;2023-05-01T21:50:17;12.70;99.90
24103;DHT22;12278;53.058;9.028;2023-05-01T21:54:17;12.70;99.90
24103;DHT22;12278;53.058;9.028;2023-05-01T21:58:18;12.60;99.90
24103;DHT22;12278;53.058;9.028;2023-05-01T22:02:19;12.60;99.90
24103;DHT22;12278;53.058;9.028;2023-05-01T22:06:20;12.60;99.90
24103;DHT22;12278;53.058;9.028;2023-05-01T22:10:23;12.50;99.90
24103;DHT22;12278;53.058;9.028;2023-05-01T22:14:24;12.50;99.90
24103;DHT22;12278;53.058;9.028;2023-05-01T22:18:26;12.50;99.90
24103;DHT22;12278;53.058;9.028;2023-05-01T22:22:26;12.60;99.90
24103;DHT22;12278;53.058;9.028;2023-05-01T22:26:27;12.60;99.90
24103;DHT22;12278;53.058;9.028;2023-05-01T22:30:28;12.60;99.90
24103;DHT22;12278;53.058;9.028;2023-05-01T22:34:29;12.50;99.90
24103;DHT22;12278;53.058;9.028;2023-05-01T22:38:31;12.50;99.90
24103;DHT22;12278;53.058;9.028;2023-05-01T22:42:34;12.50;99.90
24103;DHT22;12278;53.058;9.028;2023-05-01T22:46:44;12.50;99.90
24103;DHT22;12278;53.058;9.028;2023-05-01T22:50:48;12.40;99.90
24103;DHT22;12278;53.058;9.028;2023-05-01T22:54:50;12.40;99.90
24103;DHT22;12278;53.058;9.028;2023-05-01T22:58:51;12.50;99.90
24103;DHT22;12278;53.058;9.028;2023-05-01T23:02:55;12.40;99.90
24103;DHT22;12278;53.058;9.028;2023-05-01T23:06:55;12.40;99.90
24103;DHT22;12278;53.058;9.028;2023-05-01T23:10:56;12.50;99.90
24103;DHT22;12278;53.058;9.028;2023-05-01T23:14:57;12.50;99.90
24103;DHT22;12278;53.058;9.028;2023-05-01T23:18:58;12.50;99.90
24103;DHT22;12278;53.058;9.028;2023-05-01T23:22:58;12.50;99.90
24103;DHT22;12278;53.058;9.028;2023-05-01T23:27:00;12.50;99.90
24103;DHT22;12278;53.058;9.028;2023-05-01T23:31:02;12.50;99.90
24103;DHT22;12278;53.058;9.028;2023-05-01T23:35:13;12.50;99.90
24103;DHT22;12278;53.058;9.028;2023-05-01T23:39:14;12.40;99.90
24103;DHT22;12278;53.058;9.028;2023-05-01T23:43:15;12.30;99.90
24103;DHT22;12278;53.058;9.028;2023-05-01T23:47:16;12.20;99.90
24103;DHT22;12278;53.058;9.028;2023-05-01T23:51:17;12.20;99.90
24103;DHT22;12278;53.058;9.028;2023-05-01T23:55:18;12.10;99.90
24103;DHT22;12278;53.058;9.028;2023-05-01T23:59:19;12.10;99.90
